Terminal Aerodrome Forecast
Issued by NWS

Home | Current Version | Previous Version | Text Only | Print | Product List | Glossary On
Versions: 1 2 3 4 5 6 7 8 9 10 11 12 13 14
000
FTUS46 KSEW 281305 AAB
TAFBFI
TAF AMD
KBFI 281305Z 2813/2912 19011KT P6SM -RA SCT025 OVC060
      TEMPO 2813/2817 BKN025 OVC060
     FM282200 19008KT P6SM SCT040 BKN060
     FM290300 VRB02KT P6SM SCT060 BKN100=

USA.gov is the U.S. government's official web portal to all federal, state and local government web resources and services.